Time;durP1;ratioP1;P1;durP2;ratioP2;P2;SDS_P1;SDS_P2;PMS_P1;PMS_P2;Temp;Humidity;BMP_temperature;BMP_pressure;BME280_temperature;BME280_humidity;BME280_pressure;Samples;Min_cycle;Max_cycle;Signal;HPM_P1;HPM_P2
2023/03/30 00:00:19;;;;;;;15.25;9.20;;;10.90;99.90;;;;;;5102209;27;20035;-68
2023/03/30 00:02:49;;;;;;;15.43;8.95;;;10.90;99.90;;;;;;5102667;27;20046;-68
2023/03/30 00:05:16;;;;;;;13.05;7.97;;;11.00;99.90;;;;;;5103950;27;20039;-68
2023/03/30 00:07:44;;;;;;;15.35;8.73;;;11.00;99.90;;;;;;5103121;27;20043;-68
2023/03/30 00:10:13;;;;;;;13.10;8.05;;;11.00;99.90;;;;;;5104291;27;20047;-69
2023/03/30 00:12:39;;;;;;;13.98;8.18;;;11.00;99.90;;;;;;5098298;27;20119;-68
2023/03/30 00:15:08;;;;;;;16.95;8.52;;;11.00;99.90;;;;;;5103991;27;20431;-69
2023/03/30 00:17:34;;;;;;;14.77;8.00;;;11.00;99.90;;;;;;5099418;27;20409;-69
2023/03/30 00:20:10;;;;;;;15.05;7.97;;;11.00;99.90;;;;;;5099150;27;20035;-68
2023/03/30 00:22:37;;;;;;;14.05;8.05;;;11.00;99.90;;;;;;5098794;27;20517;-68
2023/03/30 00:25:04;;;;;;;11.73;7.72;;;10.90;99.90;;;;;;5122221;27;20092;-69
2023/03/30 00:27:29;;;;;;;13.65;7.82;;;10.90;99.90;;;;;;5103484;27;20083;-69
2023/03/30 00:29:55;;;;;;;15.02;7.75;;;10.90;99.90;;;;;;5104974;27;20351;-69
2023/03/30 00:32:20;;;;;;;13.73;7.90;;;10.90;99.90;;;;;;5102967;27;20028;-69
2023/03/30 00:34:46;;;;;;;14.15;8.18;;;10.80;99.90;;;;;;5105400;27;20038;-69
2023/03/30 00:37:11;;;;;;;12.65;7.28;;;10.90;99.90;;;;;;5107925;27;20062;-69
2023/03/30 00:39:37;;;;;;;12.55;7.90;;;10.80;99.90;;;;;;5103959;27;20117;-69
2023/03/30 00:42:03;;;;;;;14.80;7.65;;;10.90;99.90;;;;;;5102607;27;20073;-69
2023/03/30 00:45:06;;;;;;;13.25;7.72;;;10.90;99.90;;;;;;5118477;27;20023;-69
2023/03/30 00:47:41;;;;;;;13.50;7.28;;;10.90;99.90;;;;;;5104690;27;20122;-69
2023/03/30 00:50:08;;;;;;;12.73;7.82;;;10.90;99.90;;;;;;5099553;27;20617;-68
2023/03/30 00:52:36;;;;;;;12.80;8.05;;;11.00;99.90;;;;;;5123474;27;20058;-68
2023/03/30 00:55:03;;;;;;;13.10;7.85;;;10.90;99.90;;;;;;5100799;27;20035;-67
2023/03/30 00:57:29;;;;;;;13.82;8.35;;;11.00;99.90;;;;;;5103751;27;20111;-67
2023/03/30 00:59:56;;;;;;;11.02;7.90;;;10.90;99.90;;;;;;5102517;27;20132;-67
2023/03/30 01:02:22;;;;;;;14.55;8.05;;;11.00;99.90;;;;;;5101302;27;20034;-67
2023/03/30 01:04:51;;;;;;;13.98;8.23;;;11.00;99.90;;;;;;5119479;27;20068;-67
2023/03/30 01:07:17;;;;;;;11.68;7.65;;;10.90;99.90;;;;;;5105065;27;20622;-67
2023/03/30 01:09:44;;;;;;;11.85;7.68;;;11.00;99.90;;;;;;5102825;27;20109;-67
2023/03/30 01:12:10;;;;;;;12.05;7.35;;;11.00;99.90;;;;;;5104901;27;20071;-67
2023/03/30 01:14:37;;;;;;;13.52;7.75;;;11.00;99.90;;;;;;5103610;27;22059;-68
2023/03/30 01:17:21;;;;;;;13.68;7.10;;;11.10;99.90;;;;;;5101769;27;20210;-67
2023/03/30 01:20:33;;;;;;;12.60;6.70;;;11.10;99.90;;;;;;5120671;27;20038;-67
2023/03/30 01:23:14;;;;;;;12.07;6.55;;;11.10;99.90;;;;;;5075168;27;20063;-70
2023/03/30 01:26:22;;;;;;;11.77;6.80;;;11.40;99.90;;;;;;5104667;27;20138;-68
2023/03/30 01:28:56;;;;;;;13.27;6.50;;;11.60;99.90;;;;;;5103496;27;20097;-68
2023/03/30 01:31:35;;;;;;;13.38;6.82;;;11.80;99.90;;;;;;5124229;27;20050;-69
2023/03/30 01:34:30;;;;;;;11.63;6.40;;;11.90;99.90;;;;;;5087681;27;20393;-66
2023/03/30 01:37:17;;;;;;;13.50;6.53;;;12.00;99.90;;;;;;5108173;27;20043;-67
2023/03/30 01:39:46;;;;;;;11.38;6.43;;;12.00;99.90;;;;;;5105923;27;20110;-67
2023/03/30 01:42:38;;;;;;;12.07;6.75;;;12.10;99.90;;;;;;5103670;27;20050;-68
2023/03/30 01:45:29;;;;;;;12.57;6.20;;;12.10;99.90;;;;;;5105347;27;20039;-68
2023/03/30 01:48:13;;;;;;;12.20;6.38;;;12.20;99.90;;;;;;5101224;27;20386;-68
2023/03/30 01:50:42;;;;;;;10.30;6.22;;;12.10;99.90;;;;;;5106631;27;20043;-67
2023/03/30 01:53:32;;;;;;;10.80;6.13;;;12.10;99.90;;;;;;5086652;27;20434;-67
2023/03/30 01:56:16;;;;;;;12.48;6.45;;;12.10;99.90;;;;;;5100940;27;20428;-66
2023/03/30 01:59:00;;;;;;;14.43;6.20;;;12.00;99.90;;;;;;5103464;27;20050;-67
2023/03/30 02:01:28;;;;;;;12.68;6.25;;;12.00;99.90;;;;;;5103340;27;20119;-66
2023/03/30 02:03:57;;;;;;;13.32;7.10;;;12.00;99.90;;;;;;5104095;27;20137;-68
2023/03/30 02:06:37;;;;;;;11.13;6.43;;;12.00;99.90;;;;;;5106680;28;20039;-66
2023/03/30 02:09:04;;;;;;;11.25;6.72;;;11.90;99.90;;;;;;5101492;27;20045;-66
2023/03/30 02:11:31;;;;;;;10.18;6.05;;;11.90;99.90;;;;;;5107432;27;20125;-67
2023/03/30 02:13:58;;;;;;;12.48;6.47;;;11.90;99.90;;;;;;5101531;27;20039;-70
2023/03/30 02:16:36;;;;;;;9.80;5.55;;;11.90;99.90;;;;;;5105287;28;20084;-68
2023/03/30 02:19:03;;;;;;;8.32;5.70;;;11.90;99.90;;;;;;5102527;28;20151;-69
2023/03/30 02:21:30;;;;;;;11.07;5.68;;;12.00;99.90;;;;;;5104976;28;20043;-69
2023/03/30 02:23:57;;;;;;;11.10;5.90;;;12.00;99.90;;;;;;5102328;28;20509;-69
2023/03/30 02:26:25;;;;;;;7.15;5.10;;;12.00;99.90;;;;;;5103160;28;20050;-68
2023/03/30 02:28:51;;;;;;;10.30;5.55;;;12.10;99.90;;;;;;5102328;28;20050;-68
2023/03/30 02:31:16;;;;;;;11.30;5.25;;;12.10;99.90;;;;;;5107024;28;20036;-68
2023/03/30 02:34:13;;;;;;;12.15;5.80;;;12.10;99.90;;;;;;5104437;28;20031;-68
2023/03/30 02:37:03;;;;;;;9.68;4.97;;;12.00;99.90;;;;;;5126143;27;20039;-67
2023/03/30 02:39:53;;;;;;;11.75;5.55;;;12.00;99.90;;;;;;5108259;27;20049;-68
2023/03/30 02:42:31;;;;;;;8.98;5.03;;;11.90;99.90;;;;;;5108084;27;20049;-68
2023/03/30 02:45:32;;;;;;;9.73;5.40;;;11.80;99.90;;;;;;5091466;27;20039;-69
2023/03/30 02:48:12;;;;;;;10.63;4.97;;;11.70;99.90;;;;;;5106876;27;20050;-68
2023/03/30 02:51:13;;;;;;;13.30;5.40;;;11.70;99.90;;;;;;5110813;27;20043;-67
2023/03/30 02:53:48;;;;;;;11.68;5.22;;;11.70;99.90;;;;;;5105394;27;20324;-67
2023/03/30 02:56:36;;;;;;;9.27;5.47;;;11.60;99.90;;;;;;5105804;27;20126;-66
2023/03/30 02:59:09;;;;;;;10.20;5.30;;;11.60;99.90;;;;;;5104978;27;20100;-67
2023/03/30 03:01:57;;;;;;;11.15;4.95;;;11.50;99.90;;;;;;5108809;27;20084;-68
2023/03/30 03:04:27;;;;;;;8.13;5.07;;;11.60;99.90;;;;;;5104094;27;20091;-67
2023/03/30 03:06:54;;;;;;;11.32;5.00;;;11.70;99.90;;;;;;5108795;27;20544;-68
2023/03/30 03:09:23;;;;;;;12.40;5.15;;;11.70;99.90;;;;;;5105875;27;20243;-69
2023/03/30 03:11:50;;;;;;;9.52;4.75;;;11.70;99.90;;;;;;5110750;27;20072;-68
2023/03/30 03:14:16;;;;;;;12.25;4.78;;;11.70;99.90;;;;;;5103146;27;20046;-68
2023/03/30 03:16:41;;;;;;;10.48;4.80;;;11.70;99.90;;;;;;5109693;27;20035;-69
2023/03/30 03:19:08;;;;;;;8.63;5.32;;;11.70;99.90;;;;;;5109158;27;20039;-66
2023/03/30 03:21:34;;;;;;;9.65;5.13;;;11.70;99.90;;;;;;5108301;27;20043;-67
2023/03/30 03:24:00;;;;;;;10.93;4.90;;;11.80;99.90;;;;;;5104385;27;20035;-69
2023/03/30 03:26:26;;;;;;;10.57;4.75;;;11.80;99.90;;;;;;5103691;27;20046;-66
2023/03/30 03:28:51;;;;;;;9.32;4.50;;;11.90;99.90;;;;;;5105040;27;20046;-67
2023/03/30 03:31:17;;;;;;;12.45;5.18;;;11.90;99.90;;;;;;5107247;27;20042;-67
2023/03/30 03:33:42;;;;;;;11.07;5.03;;;11.90;99.90;;;;;;5102470;27;20431;-67
2023/03/30 03:36:10;;;;;;;10.02;4.68;;;11.90;99.90;;;;;;5104687;27;20035;-67
2023/03/30 03:38:36;;;;;;;9.15;4.85;;;11.90;99.90;;;;;;5104430;27;20043;-69
2023/03/30 03:41:02;;;;;;;10.30;4.20;;;12.00;99.90;;;;;;5103242;27;20389;-69
2023/03/30 03:43:28;;;;;;;10.93;4.60;;;12.10;99.90;;;;;;5102115;27;20116;-69
2023/03/30 03:45:54;;;;;;;9.27;4.35;;;12.20;99.90;;;;;;5116629;27;20122;-69
2023/03/30 03:48:22;;;;;;;9.95;4.35;;;12.20;99.90;;;;;;5120446;27;20031;-70
2023/03/30 03:50:55;;;;;;;10.27;4.30;;;12.30;99.90;;;;;;5104546;27;20478;-69
2023/03/30 03:53:22;;;;;;;10.20;4.90;;;12.30;99.90;;;;;;5100185;27;20039;-67
2023/03/30 03:55:48;;;;;;;7.25;3.95;;;12.40;99.90;;;;;;5100360;27;20058;-71
2023/03/30 03:58:14;;;;;;;10.35;4.00;;;12.30;99.90;;;;;;5101308;27;20477;-70
2023/03/30 04:00:40;;;;;;;10.00;4.10;;;12.30;99.90;;;;;;5102790;27;20091;-71
2023/03/30 04:03:07;;;;;;;10.95;4.35;;;12.30;99.90;;;;;;5102457;27;20501;-69
2023/03/30 04:05:33;;;;;;;10.00;4.05;;;12.30;99.90;;;;;;5106505;27;20031;-69
2023/03/30 04:07:59;;;;;;;7.55;4.20;;;12.30;99.90;;;;;;5104733;27;20383;-70
2023/03/30 04:10:24;;;;;;;12.82;4.65;;;12.20;99.90;;;;;;5104729;27;20209;-68
2023/03/30 04:12:50;;;;;;;12.05;4.70;;;12.20;99.90;;;;;;5101676;27;20619;-70
2023/03/30 04:15:15;;;;;;;10.57;5.03;;;12.20;99.90;;;;;;5105159;27;20035;-71
2023/03/30 04:17:43;;;;;;;8.55;5.25;;;12.10;99.90;;;;;;5100660;27;20035;-68
2023/03/30 04:20:10;;;;;;;10.52;5.55;;;11.90;99.90;;;;;;5102697;27;20409;-68
2023/03/30 04:22:40;;;;;;;12.18;5.35;;;11.70;99.90;;;;;;5101044;27;20436;-65
2023/03/30 04:25:08;;;;;;;13.32;4.78;;;11.70;99.90;;;;;;5105252;27;20123;-65
2023/03/30 04:27:36;;;;;;;11.43;5.50;;;11.60;99.90;;;;;;5102776;27;20085;-66
2023/03/30 04:30:05;;;;;;;9.85;5.45;;;11.50;99.90;;;;;;5099661;27;20045;-66
2023/03/30 04:32:33;;;;;;;10.98;5.15;;;11.60;99.90;;;;;;5099729;27;20442;-66
2023/03/30 04:35:00;;;;;;;13.90;5.22;;;11.50;99.90;;;;;;5105751;27;20054;-66
2023/03/30 04:37:29;;;;;;;13.45;5.47;;;11.40;99.90;;;;;;5101395;27;20045;-66
2023/03/30 04:39:59;;;;;;;11.43;4.82;;;11.40;99.90;;;;;;5098352;27;20043;-67
2023/03/30 04:42:29;;;;;;;9.93;4.97;;;11.40;99.90;;;;;;5103321;27;20042;-67
2023/03/30 04:44:56;;;;;;;14.63;4.82;;;11.50;99.90;;;;;;5103118;27;20035;-67
2023/03/30 04:47:22;;;;;;;9.82;4.93;;;11.50;99.90;;;;;;5102534;27;20050;-71
2023/03/30 04:49:48;;;;;;;15.65;4.80;;;11.60;99.90;;;;;;5103973;27;20047;-69
2023/03/30 04:52:13;;;;;;;9.23;4.82;;;11.60;99.90;;;;;;5103946;27;20047;-67
2023/03/30 04:54:39;;;;;;;10.43;4.82;;;11.60;99.90;;;;;;5102246;27;20035;-67
2023/03/30 04:57:04;;;;;;;11.70;5.05;;;11.70;99.90;;;;;;5107137;27;20039;-68
2023/03/30 04:59:30;;;;;;;11.10;5.15;;;11.70;99.90;;;;;;5112934;27;20074;-67
2023/03/30 05:01:55;;;;;;;12.30;5.03;;;11.70;99.90;;;;;;5102360;28;20080;-69
2023/03/30 05:04:21;;;;;;;10.30;5.10;;;11.70;99.90;;;;;;5107810;27;20493;-65
2023/03/30 05:06:48;;;;;;;8.43;4.53;;;11.70;99.90;;;;;;5105437;27;20114;-67
2023/03/30 05:09:14;;;;;;;11.80;5.07;;;11.70;99.90;;;;;;5087910;27;20422;-66
2023/03/30 05:11:40;;;;;;;9.88;4.90;;;11.60;99.90;;;;;;5103062;27;20320;-68
2023/03/30 05:14:05;;;;;;;15.35;5.20;;;11.60;99.90;;;;;;5105820;27;20500;-66
2023/03/30 05:16:31;;;;;;;11.70;5.05;;;11.60;99.90;;;;;;5102107;27;20079;-66
2023/03/30 05:18:57;;;;;;;10.38;4.70;;;11.60;99.90;;;;;;5101509;27;20496;-67
2023/03/30 05:21:23;;;;;;;10.48;4.70;;;11.70;99.90;;;;;;5101326;27;20593;-69
2023/03/30 05:23:48;;;;;;;11.63;5.15;;;11.60;99.90;;;;;;5101617;27;20347;-69
2023/03/30 05:26:14;;;;;;;9.80;4.60;;;11.60;99.90;;;;;;5103357;27;20066;-67
2023/03/30 05:28:41;;;;;;;9.27;4.05;;;11.60;99.90;;;;;;5102737;27;20039;-69
2023/03/30 05:31:07;;;;;;;11.50;4.05;;;11.60;99.90;;;;;;5105162;27;20319;-69
2023/03/30 05:33:32;;;;;;;10.15;4.00;;;11.80;99.90;;;;;;5084991;27;20086;-68
2023/03/30 05:35:58;;;;;;;9.05;4.63;;;11.80;99.90;;;;;;5099901;27;20058;-68
2023/03/30 05:38:24;;;;;;;10.80;4.35;;;11.90;99.90;;;;;;5104373;27;20035;-70
2023/03/30 05:40:53;;;;;;;17.88;4.72;;;11.90;99.90;;;;;;5106767;27;20035;-70
2023/03/30 05:43:19;;;;;;;11.85;4.13;;;11.90;99.90;;;;;;5105586;27;20043;-67
2023/03/30 05:45:44;;;;;;;10.93;4.57;;;11.90;99.90;;;;;;5107682;28;20061;-67
2023/03/30 05:48:10;;;;;;;10.30;4.35;;;11.80;99.90;;;;;;5101968;27;20031;-67
2023/03/30 05:50:36;;;;;;;7.57;4.43;;;11.70;99.90;;;;;;5108085;27;20069;-68
2023/03/30 05:53:01;;;;;;;9.75;4.50;;;11.70;99.90;;;;;;5106289;27;20071;-68
2023/03/30 05:55:27;;;;;;;14.90;5.45;;;11.70;99.90;;;;;;5103679;27;20046;-68
2023/03/30 05:57:53;;;;;;;9.70;5.15;;;11.70;99.90;;;;;;5100282;27;20091;-68
2023/03/30 06:00:20;;;;;;;15.32;5.43;;;11.70;99.90;;;;;;5106590;28;20031;-71
2023/03/30 06:02:45;;;;;;;12.15;4.80;;;11.80;99.90;;;;;;5105656;27;20087;-67
2023/03/30 06:05:11;;;;;;;12.93;5.30;;;11.90;99.90;;;;;;5107612;27;20430;-68
2023/03/30 06:07:37;;;;;;;8.70;5.63;;;11.90;99.90;;;;;;5110202;27;20371;-68
2023/03/30 06:10:04;;;;;;;10.25;5.47;;;12.00;99.90;;;;;;5105242;27;20129;-68
2023/03/30 06:12:31;;;;;;;12.75;5.70;;;11.90;99.90;;;;;;5106534;28;20036;-68
2023/03/30 06:14:56;;;;;;;12.05;5.80;;;12.00;99.90;;;;;;5104683;28;20397;-68
2023/03/30 06:17:22;;;;;;;12.02;5.80;;;11.90;99.90;;;;;;5099853;27;20042;-70
2023/03/30 06:19:47;;;;;;;9.43;5.40;;;12.00;99.90;;;;;;5103334;28;20215;-68
2023/03/30 06:22:13;;;;;;;9.32;4.07;;;12.10;99.90;;;;;;5099901;28;20039;-68
2023/03/30 06:24:39;;;;;;;11.07;4.75;;;12.10;99.90;;;;;;5105289;28;20420;-69
2023/03/30 06:27:04;;;;;;;12.25;4.38;;;12.10;99.90;;;;;;5110979;27;20046;-72
2023/03/30 06:29:30;;;;;;;15.18;4.90;;;12.10;99.90;;;;;;5112517;28;20035;-69
2023/03/30 06:31:55;;;;;;;13.52;4.28;;;12.20;99.90;;;;;;5107155;28;20031;-70
2023/03/30 06:34:21;;;;;;;12.15;3.85;;;12.20;99.90;;;;;;5093026;28;20039;-70
2023/03/30 06:36:47;;;;;;;15.60;4.22;;;12.30;99.90;;;;;;5092714;27;20500;-71
2023/03/30 06:39:13;;;;;;;12.48;3.97;;;12.20;99.90;;;;;;5112665;28;20031;-68
2023/03/30 06:41:39;;;;;;;14.52;4.18;;;12.10;99.90;;;;;;5095320;27;20040;-68
2023/03/30 06:44:05;;;;;;;10.68;4.03;;;12.10;99.90;;;;;;5120718;28;20031;-68
2023/03/30 06:46:32;;;;;;;13.60;4.10;;;12.10;99.90;;;;;;5111950;28;20046;-70
2023/03/30 06:48:58;;;;;;;17.88;4.13;;;12.20;99.90;;;;;;5108339;28;20081;-71
2023/03/30 06:51:23;;;;;;;17.95;3.58;;;12.20;99.90;;;;;;5110850;27;20085;-69
2023/03/30 06:53:49;;;;;;;14.70;3.65;;;12.20;99.90;;;;;;5107752;27;20053;-67
2023/03/30 06:56:15;;;;;;;9.25;3.50;;;12.20;99.90;;;;;;5110966;28;20039;-67
2023/03/30 06:58:40;;;;;;;16.83;4.25;;;12.20;99.90;;;;;;5123021;28;20035;-69
2023/03/30 07:01:10;;;;;;;19.00;4.75;;;12.30;99.90;;;;;;5128713;28;20035;-67
2023/03/30 07:03:36;;;;;;;16.73;4.43;;;12.30;99.90;;;;;;5092847;28;20371;-69
2023/03/30 07:06:03;;;;;;;17.25;4.43;;;12.30;99.90;;;;;;5103499;28;20481;-71
2023/03/30 07:08:28;;;;;;;16.63;4.50;;;12.30;99.90;;;;;;5108699;28;20713;-65
2023/03/30 07:10:54;;;;;;;20.48;5.00;;;12.30;99.90;;;;;;5112495;28;20047;-69
2023/03/30 07:13:20;;;;;;;20.42;5.65;;;12.30;99.90;;;;;;5104962;28;20508;-68
2023/03/30 07:15:45;;;;;;;22.10;4.53;;;12.40;99.90;;;;;;5114089;27;20067;-70
2023/03/30 07:18:12;;;;;;;23.77;5.45;;;12.40;99.90;;;;;;5108718;27;20795;-67
2023/03/30 07:20:37;;;;;;;19.77;4.25;;;12.40;99.90;;;;;;5096135;28;20066;-69
2023/03/30 07:23:03;;;;;;;18.20;4.57;;;12.30;99.90;;;;;;5112460;27;20467;-68
2023/03/30 07:25:28;;;;;;;19.70;4.00;;;12.30;99.90;;;;;;5114428;27;20478;-72
2023/03/30 07:27:54;;;;;;;25.00;4.60;;;12.30;99.90;;;;;;5113150;27;20035;-70
2023/03/30 07:30:21;;;;;;;20.42;4.65;;;12.20;99.90;;;;;;5114257;27;20367;-67
2023/03/30 07:32:48;;;;;;;25.23;5.32;;;12.20;99.90;;;;;;5113793;27;20167;-68
2023/03/30 07:35:14;;;;;;;21.05;4.97;;;12.20;99.90;;;;;;5097020;27;20039;-69
2023/03/30 07:37:40;;;;;;;24.35;5.32;;;12.20;99.90;;;;;;5127296;27;20057;-68
2023/03/30 07:40:07;;;;;;;19.83;4.70;;;12.10;99.90;;;;;;5094904;27;20039;-68
2023/03/30 07:42:33;;;;;;;27.13;5.28;;;12.10;99.90;;;;;;5103284;27;20077;-69
2023/03/30 07:44:58;;;;;;;21.00;5.07;;;12.10;99.90;;;;;;5114334;27;20109;-67
2023/03/30 07:47:25;;;;;;;22.38;6.00;;;12.00;99.90;;;;;;5114375;27;20502;-69
2023/03/30 07:49:51;;;;;;;24.08;5.13;;;12.00;99.90;;;;;;5111262;28;20055;-67
2023/03/30 07:52:16;;;;;;;23.13;5.10;;;12.10;99.90;;;;;;5112980;27;20038;-70
2023/03/30 07:54:43;;;;;;;21.50;5.47;;;12.10;99.90;;;;;;5114450;27;20370;-68
2023/03/30 07:57:10;;;;;;;24.17;5.63;;;12.10;99.90;;;;;;5114149;27;20051;-66
2023/03/30 07:59:36;;;;;;;27.83;5.20;;;12.10;99.90;;;;;;5112574;27;20453;-69
2023/03/30 08:02:03;;;;;;;25.77;5.63;;;12.10;99.90;;;;;;5114588;27;20035;-66
2023/03/30 08:04:30;;;;;;;23.88;5.10;;;12.00;99.90;;;;;;5111432;27;20043;-68
2023/03/30 08:06:56;;;;;;;21.17;5.05;;;12.00;99.90;;;;;;5111099;27;20172;-67
2023/03/30 08:09:22;;;;;;;24.27;5.07;;;12.00;99.90;;;;;;5110459;27;20204;-66
2023/03/30 08:11:47;;;;;;;26.33;5.43;;;12.10;99.90;;;;;;5113819;27;20121;-69
2023/03/30 08:14:13;;;;;;;30.77;6.00;;;12.00;99.90;;;;;;5108901;27;20393;-68
2023/03/30 08:16:38;;;;;;;27.08;6.07;;;12.00;99.90;;;;;;5106421;27;20454;-70
2023/03/30 08:19:04;;;;;;;25.73;5.55;;;12.00;99.90;;;;;;5103926;27;20046;-71
2023/03/30 08:21:30;;;;;;;29.27;6.03;;;11.80;99.90;;;;;;5113981;27;20047;-68
2023/03/30 08:23:57;;;;;;;27.55;5.45;;;11.80;99.90;;;;;;5096722;28;20131;-67
2023/03/30 08:26:25;;;;;;;30.23;7.03;;;11.90;99.90;;;;;;5114489;27;20035;-68
2023/03/30 08:28:50;;;;;;;29.02;6.75;;;11.90;99.90;;;;;;5110763;27;20046;-69
2023/03/30 08:31:17;;;;;;;24.20;6.35;;;11.90;99.90;;;;;;5109885;27;20040;-66
2023/03/30 08:33:43;;;;;;;25.85;5.15;;;11.90;99.90;;;;;;5106201;28;20067;-67
2023/03/30 08:36:10;;;;;;;27.90;6.30;;;11.90;99.90;;;;;;5104274;27;20052;-70
2023/03/30 08:38:35;;;;;;;31.80;5.57;;;11.90;99.90;;;;;;5103124;27;20453;-72
2023/03/30 08:41:01;;;;;;;23.88;5.80;;;11.90;99.90;;;;;;5108798;27;20066;-69
2023/03/30 08:43:51;;;;;;;26.42;5.72;;;12.00;99.90;;;;;;5106762;27;20043;-71
2023/03/30 08:46:18;;;;;;;30.55;6.47;;;12.10;99.90;;;;;;5108432;27;20046;-70
2023/03/30 08:48:45;;;;;;;29.52;5.45;;;12.20;99.90;;;;;;5103227;27;20477;-68
2023/03/30 08:51:29;;;;;;;26.27;5.65;;;12.20;99.90;;;;;;5112715;27;20180;-70
2023/03/30 08:54:00;;;;;;;29.70;5.47;;;12.30;99.90;;;;;;5098283;27;20127;-68
2023/03/30 08:56:32;;;;;;;31.58;5.90;;;12.40;99.90;;;;;;5110588;27;20035;-69
2023/03/30 08:59:21;;;;;;;32.33;5.40;;;12.60;99.90;;;;;;5110462;27;20083;-68
2023/03/30 09:02:23;;;;;;;32.58;6.32;;;12.80;99.90;;;;;;5104421;27;20031;-66
2023/03/30 09:05:01;;;;;;;28.13;6.07;;;13.00;99.90;;;;;;5101945;27;20089;-67
2023/03/30 09:07:42;;;;;;;24.63;5.20;;;12.90;99.90;;;;;;5109182;27;20285;-66
2023/03/30 09:10:11;;;;;;;27.50;6.00;;;12.80;99.90;;;;;;5096821;27;20035;-66
2023/03/30 09:12:42;;;;;;;27.17;5.32;;;12.70;99.90;;;;;;5103242;27;20744;-67
2023/03/30 09:15:28;;;;;;;22.08;4.72;;;12.60;99.90;;;;;;5107876;27;20039;-68
2023/03/30 09:18:24;;;;;;;20.10;4.07;;;12.70;99.90;;;;;;5103273;27;20095;-67
2023/03/30 09:20:53;;;;;;;20.80;4.55;;;12.90;99.90;;;;;;5107372;27;20049;-67
2023/03/30 09:23:20;;;;;;;21.80;3.90;;;12.80;99.90;;;;;;5100242;27;20455;-68
2023/03/30 09:26:05;;;;;;;26.75;3.65;;;12.90;99.90;;;;;;5100868;27;20031;-66
2023/03/30 09:28:44;;;;;;;21.40;4.00;;;12.90;99.90;;;;;;5103539;27;20100;-67
2023/03/30 09:31:34;;;;;;;22.15;4.03;;;13.10;99.90;;;;;;5106206;27;20039;-66
2023/03/30 09:34:06;;;;;;;16.33;3.50;;;13.10;99.90;;;;;;5098806;27;20478;-67
2023/03/30 09:36:54;;;;;;;19.77;3.90;;;13.20;99.90;;;;;;5098907;27;20067;-68
2023/03/30 09:39:22;;;;;;;21.40;3.72;;;13.40;99.90;;;;;;5110051;27;20413;-69
2023/03/30 09:42:12;;;;;;;16.58;3.65;;;13.50;99.90;;;;;;5106307;27;20624;-66
2023/03/30 09:44:53;;;;;;;15.88;3.22;;;13.50;99.90;;;;;;5104334;27;20039;-70
2023/03/30 09:47:25;;;;;;;18.63;2.75;;;13.30;99.90;;;;;;5105942;27;20419;-66
2023/03/30 09:50:03;;;;;;;21.88;3.85;;;13.20;99.90;;;;;;5103163;27;20035;-67
2023/03/30 09:52:35;;;;;;;15.35;3.30;;;13.20;99.90;;;;;;5098394;27;20123;-66
2023/03/30 09:55:15;;;;;;;17.23;3.60;;;13.20;99.90;;;;;;5104686;27;20397;-66
2023/03/30 09:57:41;;;;;;;16.02;2.80;;;13.20;99.90;;;;;;5102867;27;20077;-64
2023/03/30 10:00:28;;;;;;;19.85;3.08;;;13.30;99.90;;;;;;5098634;27;20070;-67
2023/03/30 10:02:59;;;;;;;16.55;3.00;;;13.40;99.90;;;;;;5109328;27;20071;-66
2023/03/30 10:05:26;;;;;;;20.85;3.53;;;13.40;99.90;;;;;;5125478;27;20390;-71
2023/03/30 10:08:00;;;;;;;12.98;2.72;;;13.60;99.90;;;;;;5104349;27;20043;-66
2023/03/30 10:10:31;;;;;;;19.67;3.55;;;13.70;99.90;;;;;;5100686;27;20486;-68
2023/03/30 10:13:05;;;;;;;15.80;3.03;;;13.80;99.90;;;;;;5106439;27;20035;-67
2023/03/30 10:15:31;;;;;;;20.00;3.40;;;13.80;99.90;;;;;;5104531;28;20058;-67
2023/03/30 10:18:01;;;;;;;20.75;3.05;;;13.80;99.90;;;;;;5105279;28;20043;-66
2023/03/30 10:20:35;;;;;;;16.83;3.80;;;13.80;99.90;;;;;;5101975;27;20044;-67
2023/03/30 10:23:12;;;;;;;16.08;3.38;;;13.70;99.90;;;;;;5103649;28;20042;-68
2023/03/30 10:25:40;;;;;;;14.10;3.72;;;13.80;99.90;;;;;;5106525;28;20126;-70
2023/03/30 10:28:16;;;;;;;17.05;3.40;;;13.70;99.90;;;;;;5108668;28;20043;-66
2023/03/30 10:30:50;;;;;;;18.98;3.33;;;13.80;99.90;;;;;;5105259;27;20092;-68
2023/03/30 10:33:16;;;;;;;17.30;3.72;;;14.10;99.90;;;;;;5102436;28;20039;-68
2023/03/30 10:35:42;;;;;;;18.55;3.70;;;14.20;99.90;;;;;;5101363;28;20504;-68
2023/03/30 10:38:11;;;;;;;21.60;4.20;;;14.00;99.90;;;;;;5102851;28;20066;-68
2023/03/30 10:40:40;;;;;;;12.77;3.00;;;13.80;99.90;;;;;;5100924;28;20043;-66
2023/03/30 10:43:13;;;;;;;11.60;2.42;;;13.70;99.90;;;;;;5103476;27;20045;-66
2023/03/30 10:45:42;;;;;;;19.05;3.40;;;13.90;99.90;;;;;;5110517;28;20058;-68
2023/03/30 10:48:26;;;;;;;10.55;2.20;;;13.90;99.90;;;;;;5110859;28;20051;-67
2023/03/30 10:51:16;;;;;;;15.52;3.28;;;13.90;99.90;;;;;;5106815;28;20067;-66
2023/03/30 10:54:02;;;;;;;14.63;3.63;;;14.00;99.90;;;;;;5104557;27;20482;-65
2023/03/30 10:56:45;;;;;;;14.65;2.85;;;14.10;99.90;;;;;;5108635;28;20451;-68
2023/03/30 10:59:29;;;;;;;17.55;3.20;;;14.10;99.90;;;;;;5111305;27;20054;-67
2023/03/30 11:01:57;;;;;;;18.35;3.35;;;14.10;99.90;;;;;;5112042;27;20042;-67
2023/03/30 11:04:45;;;;;;;16.83;3.50;;;14.10;99.90;;;;;;5105513;27;20035;-69
2023/03/30 11:07:18;;;;;;;15.23;3.25;;;14.20;99.90;;;;;;5108076;27;20425;-67
2023/03/30 11:09:52;;;;;;;20.33;3.33;;;14.20;99.90;;;;;;5106927;27;20502;-68
2023/03/30 11:12:21;;;;;;;19.85;3.05;;;14.10;99.90;;;;;;5112936;27;20126;-67
2023/03/30 11:14:59;;;;;;;21.27;3.67;;;14.00;99.90;;;;;;5112748;27;20561;-69
2023/03/30 11:17:32;;;;;;;24.13;3.67;;;13.90;99.90;;;;;;5105913;27;20084;-68
2023/03/30 11:20:14;;;;;;;24.35;3.90;;;13.80;99.90;;;;;;5104528;27;20079;-68
2023/03/30 11:22:47;;;;;;;22.50;5.38;;;13.80;99.90;;;;;;5097016;28;20043;-68
2023/03/30 11:25:28;;;;;;;21.98;4.20;;;13.90;99.90;;;;;;5112239;27;20051;-69
2023/03/30 11:28:05;;;;;;;26.80;4.47;;;14.00;99.90;;;;;;5111227;27;20042;-69
2023/03/30 11:30:32;;;;;;;26.30;4.35;;;14.10;99.90;;;;;;5106597;27;20408;-67
2023/03/30 11:33:10;;;;;;;18.40;3.50;;;14.20;99.90;;;;;;5108680;27;20053;-68
2023/03/30 11:36:00;;;;;;;22.33;4.22;;;14.40;99.90;;;;;;5125042;27;20027;-67
2023/03/30 11:38:26;;;;;;;19.40;3.88;;;14.60;99.90;;;;;;5108513;27;20039;-69
2023/03/30 11:41:10;;;;;;;21.33;4.13;;;14.60;99.90;;;;;;5099415;27;20473;-68
2023/03/30 11:43:36;;;;;;;20.45;3.40;;;14.70;99.90;;;;;;5105845;27;20055;-69
2023/03/30 11:46:10;;;;;;;17.27;4.10;;;14.70;99.90;;;;;;5109811;27;20179;-70
2023/03/30 11:48:51;;;;;;;25.38;4.25;;;14.60;99.90;;;;;;5112128;27;20042;-70
2023/03/30 11:51:40;;;;;;;24.50;4.95;;;14.60;99.90;;;;;;5116068;27;20043;-67
2023/03/30 11:54:45;;;;;;;18.42;4.95;;;14.40;99.90;;;;;;5112481;27;20086;-67
2023/03/30 11:57:33;;;;;;;25.13;3.83;;;14.30;99.90;;;;;;5063696;27;20089;-68
2023/03/30 12:00:26;;;;;;;21.38;4.25;;;14.40;99.90;;;;;;5100533;27;20039;-69
2023/03/30 12:03:31;;;;;;;20.88;4.07;;;14.50;99.90;;;;;;5109691;27;20126;-67
2023/03/30 12:06:25;;;;;;;18.08;3.47;;;14.80;99.90;;;;;;5109042;27;20043;-69
2023/03/30 12:09:19;;;;;;;21.10;4.63;;;14.80;99.90;;;;;;5108916;27;20042;-68
2023/03/30 12:11:47;;;;;;;22.80;4.50;;;14.80;99.90;;;;;;5106614;27;20498;-70
2023/03/30 12:14:42;;;;;;;23.27;4.10;;;14.90;99.90;;;;;;5103710;27;20092;-66
2023/03/30 12:17:37;;;;;;;17.42;4.15;;;14.80;99.90;;;;;;5094028;27;20062;-70
2023/03/30 12:20:09;;;;;;;21.08;3.95;;;15.00;99.90;;;;;;5105655;27;20047;-70
2023/03/30 12:22:48;;;;;;;18.17;3.95;;;15.10;99.90;;;;;;5110883;27;20065;-67
2023/03/30 12:25:37;;;;;;;20.08;3.85;;;15.00;99.90;;;;;;5115254;27;20047;-67
2023/03/30 12:28:13;;;;;;;23.60;4.43;;;14.80;99.90;;;;;;5108020;27;20079;-68
2023/03/30 12:30:52;;;;;;;21.02;3.55;;;14.60;99.90;;;;;;5108597;27;20066;-67
2023/03/30 12:33:27;;;;;;;22.92;3.90;;;14.50;99.90;;;;;;5111630;27;20470;-67
2023/03/30 12:36:00;;;;;;;25.15;4.40;;;14.50;99.90;;;;;;5107693;27;20039;-67
2023/03/30 12:38:37;;;;;;;25.50;4.65;;;14.20;99.90;;;;;;5111611;27;20035;-67
2023/03/30 12:41:14;;;;;;;27.92;4.95;;;14.20;99.90;;;;;;5100556;28;20028;-67
2023/03/30 12:43:43;;;;;;;24.13;4.93;;;14.20;99.90;;;;;;5094864;28;20039;-67
2023/03/30 12:46:34;;;;;;;20.38;4.30;;;14.10;99.90;;;;;;5119325;27;20077;-67
2023/03/30 12:49:37;;;;;;;27.27;5.00;;;14.30;99.90;;;;;;5104284;27;20062;-68
2023/03/30 12:52:12;;;;;;;20.20;4.50;;;14.30;99.90;;;;;;5109504;27;20126;-64
2023/03/30 12:54:56;;;;;;;26.08;5.13;;;14.40;99.90;;;;;;5122746;27;20502;-66
2023/03/30 12:58:03;;;;;;;27.73;5.25;;;14.60;99.90;;;;;;5105693;27;20070;-68
2023/03/30 13:00:47;;;;;;;24.55;5.07;;;14.70;99.90;;;;;;5106862;27;20122;-70
2023/03/30 13:03:29;;;;;;;32.25;4.78;;;14.70;99.90;;;;;;5103437;27;20035;-68